createdAt,value
2022-08-17T00:01:29.635Z,47.55
2022-08-17T00:03:58.877Z,51.72
2022-08-17T00:06:28.048Z,53.65
2022-08-17T00:09:02.611Z,55.85
2022-08-17T00:11:35.106Z,54.25
2022-08-17T00:14:14.315Z,53.15
2022-08-17T00:16:55.440Z,62.40
2022-08-17T00:19:24.678Z,55.88
2022-08-17T00:22:33.753Z,66.03
2022-08-17T00:24:39.584Z,64.10
2022-08-17T00:27:06.447Z,66.93
2022-08-17T00:29:33.349Z,62.78
2022-08-17T00:33:11.806Z,66.93
2022-08-17T00:34:49.012Z,67.63
2022-08-17T00:37:15.850Z,76.25
2022-08-17T00:39:42.742Z,69.40
2022-08-17T00:42:17.449Z,72.90
2022-08-17T00:44:44.680Z,77.28
2022-08-17T00:47:11.491Z,82.38
2022-08-17T00:49:38.367Z,76.05
2022-08-17T00:52:11.812Z,85.00
2022-08-17T00:54:41.830Z,76.15
2022-08-17T00:57:10.180Z,78.53
2022-08-17T00:59:42.864Z,92.80
2022-08-17T01:02:10.225Z,86.25
2022-08-17T01:04:37.075Z,95.05
2022-08-17T01:07:04.468Z,89.75
2022-08-17T01:09:31.523Z,93.88
2022-08-17T01:11:58.424Z,86.80
2022-08-17T01:14:25.557Z,82.32
2022-08-17T01:16:54.214Z,86.97
2022-08-17T01:19:32.581Z,88.78
2022-08-17T01:22:10.808Z,82.35
2022-08-17T01:24:39.597Z,85.15
2022-08-17T01:27:10.282Z,77.95
2022-08-17T01:29:38.660Z,85.70
2022-08-17T01:32:06.087Z,84.32
2022-08-17T01:34:42.352Z,90.82
2022-08-17T01:37:10.869Z,90.32
2022-08-17T01:39:39.258Z,93.22
2022-08-17T01:42:12.306Z,92.00
2022-08-17T01:44:41.097Z,95.07
2022-08-17T01:47:07.949Z,87.65
2022-08-17T01:49:34.874Z,95.85
2022-08-17T01:52:08.615Z,81.93
2022-08-17T01:54:35.743Z,71.10
2022-08-17T01:57:02.683Z,63.30
2022-08-17T01:59:29.609Z,59.33
2022-08-17T02:01:56.586Z,58.70
2022-08-17T02:04:23.458Z,57.38
2022-08-17T02:06:53.639Z,55.97
2022-08-17T02:09:25.873Z,65.47
2022-08-17T02:11:54.312Z,60.33
2022-08-17T02:14:21.202Z,65.18
2022-08-17T02:16:48.046Z,65.45
2022-08-17T02:19:15.911Z,70.20
2022-08-17T02:21:44.490Z,62.38
2022-08-17T02:24:15.104Z,69.63
2022-08-17T02:26:42.123Z,68.88
2022-08-17T02:29:09.057Z,66.05
2022-08-17T02:31:37.867Z,66.72
2022-08-17T02:34:05.409Z,71.25
2022-08-17T02:36:33.665Z,69.03
2022-08-17T02:39:02.434Z,57.80
2022-08-17T02:41:29.322Z,69.07
2022-08-17T02:43:57.181Z,63.80
2022-08-17T02:46:25.115Z,61.25
2022-08-17T02:48:52.007Z,62.42
2022-08-17T02:51:18.822Z,59.05
2022-08-17T02:53:46.817Z,56.92
2022-08-17T02:56:13.686Z,52.58
2022-08-17T02:58:40.626Z,53.30
2022-08-17T03:01:08.432Z,51.90
2022-08-17T03:03:35.812Z,53.08
2022-08-17T03:06:02.922Z,55.05
2022-08-17T03:08:30.009Z,49.33
2022-08-17T03:10:56.851Z,50.70
2022-08-17T03:13:23.680Z,51.92
2022-08-17T03:15:50.754Z,50.85
2022-08-17T03:18:25.510Z,50.55
2022-08-17T03:20:55.370Z,50.08
2022-08-17T03:23:24.051Z,49.67
2022-08-17T03:25:53.110Z,47.20
2022-08-17T03:28:20.529Z,49.90
2022-08-17T03:30:47.421Z,44.40
2022-08-17T03:33:14.471Z,50.50
2022-08-17T03:35:41.509Z,49.08
2022-08-17T03:38:10.563Z,59.47
2022-08-17T03:40:57.380Z,66.80
2022-08-17T03:43:24.506Z,66.93
2022-08-17T03:46:27.090Z,74.10
2022-08-17T03:49:15.175Z,72.30
2022-08-17T03:52:00.330Z,69.60
2022-08-17T03:54:45.651Z,63.90
2022-08-17T03:57:12.656Z,68.82
2022-08-17T03:59:39.635Z,88.25
2022-08-17T04:02:24.353Z,85.35
2022-08-17T04:04:52.300Z,89.72
2022-08-17T04:07:20.315Z,104.72
2022-08-17T04:09:47.299Z,82.10
2022-08-17T04:12:16.156Z,70.65
2022-08-17T04:14:53.619Z,87.90
2022-08-17T04:17:26.529Z,104.28
2022-08-17T04:19:53.670Z,94.03
2022-08-17T04:22:33.318Z,96.50
2022-08-17T04:25:09.718Z,90.20
2022-08-17T04:27:36.596Z,89.50
2022-08-17T04:30:04.247Z,81.53
2022-08-17T04:33:04.552Z,86.13
2022-08-17T04:35:25.739Z,83.88
2022-08-17T04:37:52.622Z,85.05
2022-08-17T04:40:38.414Z,82.85
2022-08-17T04:43:07.405Z,75.97
2022-08-17T04:45:34.491Z,72.72
2022-08-17T04:48:01.442Z,77.60
2022-08-17T04:50:28.342Z,77.05
2022-08-17T04:52:55.650Z,82.85
2022-08-17T04:55:22.658Z,70.85
2022-08-17T04:57:49.495Z,82.13
2022-08-17T05:00:16.406Z,71.97
2022-08-17T05:02:50.690Z,79.88
2022-08-17T05:05:27.058Z,77.57
2022-08-17T05:07:58.722Z,83.15
2022-08-17T05:10:27.698Z,73.90
2022-08-17T05:13:01.358Z,69.70
2022-08-17T05:15:28.621Z,72.35
2022-08-17T05:18:00.126Z,76.35
2022-08-17T05:20:27.108Z,70.20
2022-08-17T05:22:55.813Z,67.63
2022-08-17T05:25:32.796Z,67.78
2022-08-17T05:28:03.273Z,72.00
2022-08-17T05:30:30.158Z,75.70
2022-08-17T05:33:05.340Z,80.55
2022-08-17T05:35:34.479Z,74.05
2022-08-17T05:38:01.719Z,52.53
2022-08-17T05:40:32.907Z,52.33
2022-08-17T05:43:09.356Z,46.50
2022-08-17T05:45:55.873Z,34.45
2022-08-17T05:48:36.768Z,38.38
2022-08-17T05:51:32.458Z,34.10
2022-08-17T05:54:08.192Z,33.15
2022-08-17T05:56:39.441Z,28.80
2022-08-17T05:59:22.580Z,25.15
2022-08-17T06:02:01.882Z,27.25
2022-08-17T06:04:59.618Z,25.65
2022-08-17T06:07:39.616Z,26.15
2022-08-17T06:10:18.583Z,29.63
2022-08-17T06:13:10.112Z,23.63
2022-08-17T06:15:49.491Z,22.80
2022-08-17T06:18:19.133Z,25.38
2022-08-17T06:20:50.951Z,24.23
2022-08-17T06:23:24.861Z,25.83
2022-08-17T06:25:53.971Z,23.48
2022-08-17T06:28:49.364Z,21.90
2022-08-17T06:31:29.268Z,23.55
2022-08-17T06:33:57.071Z,24.45
2022-08-17T06:36:28.765Z,26.45
2022-08-17T06:39:24.354Z,25.00
2022-08-17T06:42:01.756Z,23.30
2022-08-17T06:44:43.583Z,23.88
2022-08-17T06:47:28.558Z,21.25
2022-08-17T06:50:07.952Z,27.17
2022-08-17T06:52:52.466Z,27.75
2022-08-17T06:55:37.895Z,27.05
2022-08-17T06:58:09.234Z,22.40
2022-08-17T07:00:44.176Z,23.15
2022-08-17T07:03:38.818Z,23.90
2022-08-17T07:06:17.178Z,24.08
2022-08-17T07:08:52.887Z,22.02
2022-08-17T07:11:27.275Z,20.85
2022-08-17T07:14:15.219Z,20.23
2022-08-17T07:16:51.686Z,22.33
2022-08-17T07:19:20.458Z,20.63
2022-08-17T07:22:06.074Z,25.48
2022-08-17T07:24:41.532Z,18.52
2022-08-17T07:27:16.176Z,21.20
2022-08-17T07:29:52.963Z,18.88
2022-08-17T07:32:24.097Z,15.48
2022-08-17T07:35:10.689Z,13.95
2022-08-17T07:37:54.181Z,12.70
2022-08-17T07:40:22.769Z,12.63
2022-08-17T07:43:06.833Z,14.52
2022-08-17T07:45:53.183Z,14.63
2022-08-17T07:48:22.508Z,16.88
2022-08-17T07:50:50.827Z,13.18
2022-08-17T07:53:23.199Z,18.27
2022-08-17T07:55:50.585Z,14.88
2022-08-17T07:58:19.338Z,15.65
2022-08-17T08:00:46.422Z,14.48
2022-08-17T08:03:15.230Z,17.98
2022-08-17T08:05:56.951Z,16.98
2022-08-17T08:08:42.456Z,17.77
2022-08-17T08:11:15.453Z,15.10
2022-08-17T08:13:45.543Z,16.60
2022-08-17T08:16:13.310Z,13.65
2022-08-17T08:18:55.419Z,17.45
2022-08-17T08:21:42.239Z,22.13
2022-08-17T08:24:40.818Z,26.48
2022-08-17T08:27:19.843Z,22.92
2022-08-17T08:30:04.837Z,21.67
2022-08-17T08:32:50.670Z,20.63
2022-08-17T08:35:53.623Z,24.35
2022-08-17T08:38:30.973Z,23.88
2022-08-17T08:40:57.817Z,27.65
2022-08-17T08:43:24.630Z,22.27
2022-08-17T08:46:10.126Z,21.08
2022-08-17T08:48:57.948Z,23.77
2022-08-17T08:51:44.016Z,23.02
2022-08-17T08:54:40.115Z,30.77
2022-08-17T08:57:26.753Z,27.27
2022-08-17T09:00:05.682Z,28.73
2022-08-17T09:02:50.898Z,24.58
2022-08-17T09:05:48.607Z,33.00
2022-08-17T09:08:29.972Z,28.13
2022-08-17T09:12:02.543Z,30.15
2022-08-17T09:14:47.193Z,28.23
2022-08-17T09:17:16.429Z,29.20
2022-08-17T09:19:57.197Z,26.17
2022-08-17T09:22:39.439Z,30.52
2022-08-17T09:25:08.212Z,31.52
2022-08-17T09:27:53.189Z,28.45
2022-08-17T09:30:21.261Z,31.08
2022-08-17T09:32:55.324Z,36.08
2022-08-17T09:35:25.208Z,36.92
2022-08-17T09:38:22.755Z,40.95
2022-08-17T09:41:04.553Z,39.28
2022-08-17T09:43:55.792Z,41.10
2022-08-17T09:46:49.401Z,41.33
2022-08-17T09:49:32.150Z,44.28
2022-08-17T09:52:02.869Z,41.33
2022-08-17T09:54:40.194Z,44.28
2022-08-17T09:57:30.256Z,39.78
2022-08-17T10:00:16.803Z,42.70
2022-08-17T10:03:04.778Z,42.15
2022-08-17T10:05:46.528Z,45.22
2022-08-17T10:08:28.799Z,42.63
2022-08-17T10:11:05.516Z,43.38
2022-08-17T10:13:36.399Z,40.60
2022-08-17T10:16:07.815Z,39.58
2022-08-17T10:18:44.436Z,37.80
2022-08-17T10:21:31.279Z,38.13
2022-08-17T10:24:36.184Z,35.25
2022-08-17T10:27:04.218Z,35.22
2022-08-17T10:29:47.278Z,35.50
2022-08-17T10:32:37.406Z,35.72
2022-08-17T10:35:13.275Z,34.33
2022-08-17T10:37:52.774Z,36.28
2022-08-17T10:40:37.318Z,34.80
2022-08-17T10:43:32.934Z,35.58
2022-08-17T10:46:30.227Z,37.55
2022-08-17T10:49:18.124Z,38.58
2022-08-17T10:51:49.175Z,40.30
2022-08-17T10:54:25.142Z,45.35
2022-08-17T10:56:53.550Z,45.33
2022-08-17T10:59:51.179Z,41.22
2022-08-17T11:02:31.604Z,39.75
2022-08-17T11:05:15.939Z,39.92
2022-08-17T11:07:54.956Z,43.33
2022-08-17T11:10:52.117Z,46.22
2022-08-17T11:13:29.938Z,41.80
2022-08-17T11:16:08.298Z,45.28
2022-08-17T11:19:12.891Z,45.30
2022-08-17T11:22:11.770Z,46.67
2022-08-17T11:24:48.185Z,44.22
2022-08-17T11:27:31.435Z,50.40
2022-08-17T11:30:11.241Z,50.97
2022-08-17T11:32:52.012Z,50.63
2022-08-17T11:35:21.405Z,51.85
2022-08-17T11:38:13.999Z,53.35
2022-08-17T11:41:13.568Z,52.63
2022-08-17T11:44:02.158Z,52.58
2022-08-17T11:46:56.711Z,52.20
2022-08-17T11:49:54.743Z,48.90
2022-08-17T11:52:42.321Z,45.58
2022-08-17T11:55:40.555Z,42.35
2022-08-17T11:58:44.537Z,43.03
2022-08-17T12:01:31.659Z,40.47
2022-08-17T12:04:26.635Z,41.25
2022-08-17T12:07:07.193Z,39.95
2022-08-17T12:09:34.540Z,40.38
2022-08-17T12:12:14.559Z,39.00
2022-08-17T12:15:11.155Z,38.72
2022-08-17T12:17:40.467Z,39.20
2022-08-17T12:20:28.570Z,35.70
2022-08-17T12:23:04.930Z,36.30
2022-08-17T12:25:42.098Z,35.33
2022-08-17T12:28:29.562Z,34.05
2022-08-17T12:31:19.222Z,32.58
2022-08-17T12:33:46.410Z,32.72
2022-08-17T12:36:17.419Z,29.17
2022-08-17T12:38:51.043Z,28.10
2022-08-17T12:41:34.201Z,28.33
2022-08-17T12:44:18.257Z,26.60
2022-08-17T12:46:46.569Z,27.73
2022-08-17T12:49:22.996Z,25.80
2022-08-17T12:51:50.295Z,27.60
2022-08-17T12:54:33.707Z,28.23
2022-08-17T12:57:05.605Z,28.30
2022-08-17T12:59:33.248Z,30.80
2022-08-17T13:02:00.296Z,30.90
2022-08-17T13:04:29.687Z,30.52
2022-08-17T13:06:59.682Z,30.08
2022-08-17T13:09:33.578Z,28.02
2022-08-17T13:12:03.286Z,29.25
2022-08-17T13:14:33.277Z,27.73
2022-08-17T13:17:01.714Z,26.90
2022-08-17T13:19:41.031Z,27.83
2022-08-17T13:22:11.416Z,29.00
2022-08-17T13:24:39.283Z,30.00
2022-08-17T13:27:08.502Z,28.77
2022-08-17T13:29:45.804Z,27.13
2022-08-17T13:32:31.160Z,30.10
2022-08-17T13:35:12.325Z,28.90
2022-08-17T13:37:55.329Z,28.33
2022-08-17T13:40:22.144Z,30.15
2022-08-17T13:42:52.644Z,29.30
2022-08-17T13:45:36.003Z,29.65
2022-08-17T13:48:17.062Z,27.30
2022-08-17T13:50:54.467Z,29.30
2022-08-17T13:53:24.069Z,30.02
2022-08-17T13:55:52.982Z,29.70
2022-08-17T13:58:27.287Z,26.00
2022-08-17T14:00:54.427Z,24.95
2022-08-17T14:03:21.339Z,25.58
2022-08-17T14:05:48.654Z,25.73
2022-08-17T14:08:16.115Z,25.15
2022-08-17T14:10:45.038Z,26.73
2022-08-17T14:13:13.365Z,25.42
2022-08-17T14:15:55.316Z,26.77
2022-08-17T14:18:50.535Z,23.23
2022-08-17T14:21:10.690Z,23.25
2022-08-17T14:23:37.676Z,23.58
2022-08-17T14:26:04.942Z,22.98
2022-08-17T14:28:32.863Z,24.77
2022-08-17T14:31:03.207Z,23.27
2022-08-17T14:33:30.087Z,23.92
2022-08-17T14:35:57.685Z,22.55
2022-08-17T14:38:24.830Z,22.15
2022-08-17T14:40:51.759Z,23.35
2022-08-17T14:43:18.766Z,24.38
2022-08-17T14:45:47.057Z,21.77
2022-08-17T14:48:13.966Z,23.40
2022-08-17T14:50:41.872Z,23.20
2022-08-17T14:53:10.048Z,23.40
2022-08-17T14:55:39.882Z,24.38
2022-08-17T14:58:07.625Z,23.50
2022-08-17T15:00:34.493Z,23.08
2022-08-17T15:03:01.539Z,23.70
2022-08-17T15:05:33.758Z,22.15
2022-08-17T15:08:01.368Z,22.48
2022-08-17T15:10:29.163Z,23.02
2022-08-17T15:12:56.323Z,22.02
2022-08-17T15:15:23.499Z,23.40
2022-08-17T15:17:51.398Z,26.25
2022-08-17T15:20:20.846Z,23.35
2022-08-17T15:22:49.829Z,21.27
2022-08-17T15:25:17.728Z,21.15
2022-08-17T15:27:44.628Z,18.75
2022-08-17T15:30:12.047Z,23.05
2022-08-17T15:32:41.085Z,20.25
2022-08-17T15:35:17.907Z,21.23
2022-08-17T15:37:44.910Z,19.23
2022-08-17T15:40:12.564Z,17.55
2022-08-17T15:42:40.419Z,18.33
2022-08-17T15:45:10.504Z,17.25
2022-08-17T15:47:37.609Z,17.58
2022-08-17T15:50:06.429Z,18.83
2022-08-17T15:52:38.026Z,18.52
2022-08-17T15:55:05.675Z,20.17
2022-08-17T15:57:33.382Z,19.25
2022-08-17T16:00:00.269Z,18.33
2022-08-17T16:03:46.006Z,19.13
2022-08-17T16:05:24.015Z,17.63
2022-08-17T16:07:51.322Z,19.50
2022-08-17T16:10:19.178Z,20.42
2022-08-17T16:12:47.248Z,19.98
2022-08-17T16:15:14.426Z,19.40
2022-08-17T16:17:44.374Z,19.77
2022-08-17T16:20:20.011Z,21.65
2022-08-17T16:22:48.369Z,21.95
2022-08-17T16:25:19.000Z,18.90
2022-08-17T16:27:46.675Z,19.00
2022-08-17T16:30:17.343Z,18.90
2022-08-17T16:32:44.811Z,17.63
2022-08-17T16:35:12.162Z,18.33
2022-08-17T16:37:40.381Z,18.38
2022-08-17T16:40:13.051Z,18.10
2022-08-17T16:42:40.159Z,21.90
2022-08-17T16:45:13.423Z,22.45
2022-08-17T16:47:41.385Z,22.13
2022-08-17T16:50:09.552Z,24.00
2022-08-17T16:52:36.756Z,26.15
2022-08-17T16:55:04.111Z,25.85
2022-08-17T16:57:31.037Z,24.42
2022-08-17T16:59:57.930Z,24.58
2022-08-17T17:02:30.530Z,23.83
2022-08-17T17:05:19.285Z,21.27
2022-08-17T17:07:55.490Z,16.23
2022-08-17T17:10:40.930Z,13.80
2022-08-17T17:13:09.961Z,11.65
2022-08-17T17:16:01.339Z,14.95
2022-08-17T17:19:04.735Z,10.48
2022-08-17T17:21:47.345Z,11.75
2022-08-17T17:24:41.891Z,10.77
2022-08-17T17:27:32.547Z,12.70
2022-08-17T17:30:15.687Z,11.00
2022-08-17T17:32:46.667Z,10.65
2022-08-17T17:35:33.090Z,11.43
2022-08-17T17:38:04.156Z,11.02
2022-08-17T17:40:47.816Z,11.70
2022-08-17T17:43:37.631Z,9.82
2022-08-17T17:46:27.018Z,10.20
2022-08-17T17:48:55.251Z,10.20
2022-08-17T17:51:54.692Z,10.27
2022-08-17T17:54:24.383Z,11.65
2022-08-17T17:56:58.435Z,11.10
2022-08-17T17:59:44.071Z,10.13
2022-08-17T18:02:45.057Z,11.07
2022-08-17T18:05:37.227Z,12.45
2022-08-17T18:08:35.212Z,14.20
2022-08-17T18:11:11.503Z,15.52
2022-08-17T18:13:44.000Z,12.23
2022-08-17T18:16:13.255Z,14.38
2022-08-17T18:18:44.539Z,14.20
2022-08-17T18:21:19.318Z,12.13
2022-08-17T18:23:56.667Z,16.55
2022-08-17T18:26:47.191Z,12.35
2022-08-17T18:29:37.566Z,13.65
2022-08-17T18:32:23.087Z,14.70
2022-08-17T18:34:52.858Z,13.32
2022-08-17T18:37:38.369Z,14.25
2022-08-17T18:40:17.341Z,11.65
2022-08-17T18:43:03.351Z,17.73
2022-08-17T18:45:47.451Z,19.25
2022-08-17T18:48:33.490Z,22.83
2022-08-17T18:51:20.223Z,19.50
2022-08-17T18:54:25.143Z,20.60
2022-08-17T18:56:55.147Z,18.00
2022-08-17T18:59:42.190Z,18.75
2022-08-17T19:02:20.690Z,15.80
2022-08-17T19:05:09.113Z,16.33
2022-08-17T19:07:41.570Z,16.42
2022-08-17T19:10:20.400Z,14.90
2022-08-17T19:13:12.929Z,16.75
2022-08-17T19:16:11.682Z,16.45
2022-08-17T19:18:58.926Z,14.43
2022-08-17T19:21:41.383Z,14.32
2022-08-17T19:24:12.376Z,11.63
2022-08-17T19:26:54.600Z,12.57
2022-08-17T19:29:41.009Z,12.48
2022-08-17T19:32:08.953Z,12.52
2022-08-17T19:34:36.579Z,11.38
2022-08-17T19:37:23.448Z,13.95
2022-08-17T19:39:56.152Z,13.10
2022-08-17T19:42:31.141Z,14.75
2022-08-17T19:45:06.549Z,15.55
2022-08-17T19:48:04.598Z,11.48
2022-08-17T19:50:43.951Z,12.52
2022-08-17T19:53:47.403Z,13.18
2022-08-17T19:56:31.663Z,18.85
2022-08-17T19:59:01.466Z,20.20
2022-08-17T20:02:03.018Z,25.27
2022-08-17T20:04:32.370Z,21.45
2022-08-17T20:07:23.370Z,20.55
2022-08-17T20:09:54.722Z,17.13
2022-08-17T20:12:33.386Z,18.30
2022-08-17T20:15:30.445Z,18.60
2022-08-17T20:17:58.813Z,20.23
2022-08-17T20:21:07.159Z,23.45
2022-08-17T20:23:51.000Z,19.88
2022-08-17T20:26:20.923Z,20.63
2022-08-17T20:29:09.174Z,18.05
2022-08-17T20:31:59.242Z,20.20
2022-08-17T20:34:37.162Z,17.33
2022-08-17T20:37:14.591Z,19.50
2022-08-17T20:40:09.138Z,15.77
2022-08-17T20:42:36.325Z,16.63
2022-08-17T20:45:26.441Z,17.10
2022-08-17T20:48:20.051Z,18.73
2022-08-17T20:50:47.115Z,20.88
2022-08-17T20:53:36.647Z,18.08
2022-08-17T20:56:03.585Z,18.90
2022-08-17T20:58:31.195Z,16.25
2022-08-17T21:00:59.038Z,21.27
2022-08-17T21:03:51.186Z,21.65
2022-08-17T21:06:20.495Z,19.30
2022-08-17T21:08:54.640Z,19.02
2022-08-17T21:12:03.134Z,22.27
2022-08-17T21:14:36.569Z,20.13
2022-08-17T21:17:35.707Z,21.58
2022-08-17T21:20:22.575Z,21.25
2022-08-17T21:23:20.474Z,23.20
2022-08-17T21:26:09.237Z,20.27
2022-08-17T21:29:30.084Z,20.60
2022-08-17T21:32:03.744Z,21.05
2022-08-17T21:34:33.234Z,22.40
2022-08-17T21:37:18.661Z,19.85
2022-08-17T21:39:51.881Z,18.83
2022-08-17T21:42:29.100Z,20.23
2022-08-17T21:44:59.855Z,19.63
2022-08-17T21:47:28.254Z,20.52
2022-08-17T21:49:55.768Z,22.35
2022-08-17T21:52:23.915Z,19.85
2022-08-17T21:54:55.202Z,21.58
2022-08-17T21:57:27.571Z,23.30
2022-08-17T21:59:59.832Z,23.65
2022-08-17T22:02:35.187Z,22.83
2022-08-17T22:05:07.071Z,28.83
2022-08-17T22:07:42.905Z,23.05
2022-08-17T22:10:30.583Z,23.45
2022-08-17T22:13:04.080Z,24.10
2022-08-17T22:15:31.096Z,25.15
2022-08-17T22:18:01.651Z,27.85
2022-08-17T22:20:28.511Z,28.58
2022-08-17T22:23:13.794Z,30.13
2022-08-17T22:25:56.190Z,28.10
2022-08-17T22:28:42.572Z,25.70
2022-08-17T22:31:10.638Z,31.70
2022-08-17T22:33:41.608Z,27.20
2022-08-17T22:36:22.099Z,25.08
2022-08-17T22:38:49.581Z,27.52
2022-08-17T22:41:25.479Z,25.70
2022-08-17T22:43:52.711Z,25.95
2022-08-17T22:46:21.290Z,24.05
2022-08-17T22:48:50.711Z,27.15
2022-08-17T22:51:22.284Z,23.85
2022-08-17T22:54:11.571Z,25.23
2022-08-17T22:56:56.775Z,22.60
2022-08-17T22:59:43.818Z,21.98
2022-08-17T23:02:29.996Z,27.13
2022-08-17T23:05:13.025Z,24.98
2022-08-17T23:07:40.559Z,24.13
2022-08-17T23:10:09.703Z,19.67
2022-08-17T23:12:39.651Z,20.08
2022-08-17T23:15:14.459Z,24.92
2022-08-17T23:17:42.058Z,20.40
2022-08-17T23:20:12.099Z,22.60
2022-08-17T23:22:51.397Z,22.65
2022-08-17T23:25:26.455Z,24.90
2022-08-17T23:27:53.610Z,27.30
2022-08-17T23:30:20.697Z,25.50
2022-08-17T23:32:53.705Z,26.08
2022-08-17T23:35:21.017Z,27.13
2022-08-17T23:38:10.687Z,23.98
2022-08-17T23:40:39.595Z,23.63
2022-08-17T23:43:16.642Z,22.95
2022-08-17T23:45:50.716Z,22.45
2022-08-17T23:48:35.115Z,21.73
2022-08-17T23:51:04.003Z,23.50
2022-08-17T23:53:32.714Z,19.95
2022-08-17T23:56:09.296Z,20.30
2022-08-17T23:58:42.319Z,20.73
